Time;durP1;ratioP1;P1;durP2;ratioP2;P2;SDS_P1;SDS_P2;PMS_P1;PMS_P2;Temp;Humidity;BMP_temperature;BMP_pressure;BME280_temperature;BME280_humidity;BME280_pressure;Samples;Min_cycle;Max_cycle;Signal;HPM_P1;HPM_P2
2024/05/07 00:01:35;;;;;;;1.92;1.58;;;14.50;70.80;;;10.00;100.00;95190.50;5214602;27;20056;-50
2024/05/07 00:04:03;;;;;;;1.73;1.55;;;14.50;70.80;;;10.01;100.00;95191.31;5230645;27;20006;-49
2024/05/07 00:06:29;;;;;;;3.88;1.70;;;14.50;70.90;;;10.01;100.00;95186.78;5215929;27;20055;-48
2024/05/07 00:08:55;;;;;;;1.85;1.70;;;14.50;71.70;;;10.02;100.00;95192.88;5225943;27;20015;-52
2024/05/07 00:11:21;;;;;;;2.05;1.85;;;14.50;70.90;;;10.02;100.00;95190.22;5229595;27;20026;-51
2024/05/07 00:13:47;;;;;;;2.30;1.70;;;14.50;70.90;;;10.02;100.00;95193.69;5224499;27;20006;-49
2024/05/07 00:16:13;;;;;;;2.97;1.90;;;14.50;70.90;;;10.04;100.00;95204.06;5222431;27;20022;-48
2024/05/07 00:18:38;;;;;;;2.15;1.83;;;14.60;70.90;;;10.03;100.00;95197.97;5222932;27;20377;-51
2024/05/07 00:25:51;;;;;;;2.35;2.10;;;14.60;71.00;;;10.08;100.00;95207.78;5216799;27;20551;-48
2024/05/07 00:28:18;;;;;;;2.37;2.10;;;14.60;71.00;;;10.09;100.00;95201.38;5212938;27;20418;-52
2024/05/07 00:34:44;;;;;;;4.05;2.05;;;14.50;71.00;;;10.08;100.00;95205.13;5214306;27;20022;-52
2024/05/07 00:37:10;;;;;;;3.05;2.67;;;14.50;70.90;;;10.08;100.00;95205.13;5251660;27;20010;-55
2024/05/07 00:39:36;;;;;;;3.95;2.22;;;14.50;71.00;;;10.09;100.00;95201.38;5258957;27;20038;-53
2024/05/07 00:42:05;;;;;;;4.05;2.55;;;14.60;71.10;;;10.10;100.00;95201.13;5252076;27;20364;-54
2024/05/07 00:44:31;;;;;;;3.80;2.60;;;14.60;71.20;;;10.09;100.00;95204.03;5248845;27;20030;-54
2024/05/07 00:46:58;;;;;;;3.40;2.40;;;14.60;71.10;;;10.08;100.00;95197.13;5253550;27;20038;-53
2024/05/07 00:49:24;;;;;;;3.50;2.47;;;14.60;71.10;;;10.08;100.00;95207.78;5250735;27;20010;-51
2024/05/07 00:51:50;;;;;;;2.90;2.60;;;14.60;71.10;;;10.08;100.00;95207.78;5254516;27;20018;-52
2024/05/07 00:54:19;;;;;;;2.80;2.50;;;14.60;71.20;;;10.10;100.00;95208.31;5247676;27;20022;-52
2024/05/07 00:56:47;;;;;;;3.35;2.42;;;14.60;71.20;;;10.09;100.00;95209.38;5254650;27;20010;-54
2024/05/07 00:59:13;;;;;;;2.70;2.45;;;14.60;71.30;;;10.10;100.00;95208.31;5252497;27;20088;-50
2024/05/07 01:01:40;;;;;;;4.85;2.67;;;14.60;71.20;;;10.09;100.00;95202.19;5247200;27;20887;-51
2024/05/07 01:04:06;;;;;;;3.03;2.50;;;14.60;71.20;;;10.11;100.00;95201.91;5258763;27;20053;-49
2024/05/07 01:06:34;;;;;;;2.53;2.33;;;14.60;71.20;;;10.12;100.00;95198.19;5244337;27;20379;-52
2024/05/07 01:09:00;;;;;;;2.50;2.30;;;14.70;71.20;;;10.11;100.00;95196.59;5254527;27;20041;-51
2024/05/07 01:11:26;;;;;;;2.83;2.30;;;14.70;71.30;;;10.07;100.00;95200.88;5258380;27;20408;-52
2024/05/07 01:14:07;;;;;;;3.55;2.65;;;14.70;71.20;;;10.08;100.00;95202.47;5253394;27;20021;-53
2024/05/07 01:16:33;;;;;;;5.75;2.53;;;14.70;71.40;;;10.10;100.00;95189.69;5253659;27;20087;-52
2024/05/07 01:19:00;;;;;;;2.53;2.20;;;14.60;71.10;;;10.10;100.00;95190.47;5252184;27;20091;-53
2024/05/07 01:21:26;;;;;;;3.30;2.40;;;14.70;71.30;;;10.11;100.00;95188.63;5254037;27;20006;-52
2024/05/07 01:23:52;;;;;;;3.47;2.85;;;14.60;71.20;;;10.12;100.00;95193.69;5251036;27;20354;-50
2024/05/07 01:26:18;;;;;;;2.58;2.38;;;14.70;71.20;;;10.11;100.00;95200.03;5259453;27;20559;-51
2024/05/07 01:28:45;;;;;;;7.22;2.95;;;14.70;71.20;;;10.10;100.00;95198.47;5252634;27;20046;-51
2024/05/07 01:31:11;;;;;;;7.07;3.17;;;14.70;71.20;;;10.08;100.00;95189.94;5248189;27;20021;-53
2024/05/07 01:33:37;;;;;;;4.80;3.30;;;14.70;71.20;;;10.09;100.00;95194.22;5257966;27;20013;-53
2024/05/07 01:36:07;;;;;;;3.35;2.72;;;14.70;71.20;;;10.08;100.00;95189.94;5242716;27;20011;-49
2024/05/07 01:38:33;;;;;;;5.10;3.10;;;14.70;71.30;;;10.08;100.00;95192.59;5257817;27;20042;-52
2024/05/07 01:40:59;;;;;;;4.05;3.60;;;14.70;71.20;;;10.10;100.00;95187.03;5248053;27;20014;-53
2024/05/07 01:43:25;;;;;;;4.75;3.45;;;14.70;71.20;;;10.09;100.00;95194.22;5245143;27;20016;-49
2024/05/07 01:45:51;;;;;;;5.45;4.05;;;14.70;71.20;;;10.11;100.00;95193.94;5259900;27;20010;-51
2024/05/07 01:48:17;;;;;;;6.13;3.80;;;14.70;71.20;;;10.11;100.00;95189.41;5252048;27;20014;-51
2024/05/07 01:50:43;;;;;;;5.57;3.75;;;14.70;71.20;;;10.12;100.00;95193.69;5247187;27;20021;-52
2024/05/07 01:53:11;;;;;;;4.45;3.70;;;14.70;71.20;;;10.10;100.00;95192.34;5254427;27;20014;-50
2024/05/07 01:55:36;;;;;;;7.68;4.35;;;14.70;71.20;;;10.08;100.00;95194.47;5238425;27;20006;-53
2024/05/07 01:58:03;;;;;;;6.43;3.60;;;14.70;71.20;;;10.08;100.00;95191.81;5251746;27;20005;-54
2024/05/07 02:00:28;;;;;;;6.15;4.60;;;14.70;71.20;;;10.07;100.00;95192.88;5255035;27;20087;-49
2024/05/07 02:02:54;;;;;;;8.43;4.47;;;14.60;71.20;;;10.05;100.00;95187.03;5249533;27;20014;-52
2024/05/07 02:05:20;;;;;;;6.20;4.80;;;14.70;71.30;;;10.07;100.00;95192.88;5253079;27;20024;-56
2024/05/07 02:07:47;;;;;;;6.80;4.85;;;14.60;71.30;;;10.07;100.00;95193.69;5237486;27;20354;-55
2024/05/07 02:10:13;;;;;;;5.82;4.90;;;14.60;71.40;;;10.04;100.00;95191.56;5249037;27;20017;-51
2024/05/07 02:12:39;;;;;;;9.25;5.78;;;14.60;71.40;;;10.04;100.00;95193.44;5255816;27;20014;-49
2024/05/07 02:15:06;;;;;;;10.18;7.55;;;14.60;71.40;;;10.02;100.00;95193.69;5251376;27;20020;-50
2024/05/07 02:17:33;;;;;;;17.33;8.93;;;14.60;71.50;;;10.02;100.00;95199.00;5249462;27;20110;-50
2024/05/07 02:19:59;;;;;;;9.93;8.10;;;14.60;71.50;;;10.02;100.00;95203.53;5240392;27;20014;-51
2024/05/07 02:22:25;;;;;;;12.75;8.25;;;14.50;71.60;;;10.04;100.00;95198.75;5245056;27;20006;-53
2024/05/07 02:24:51;;;;;;;11.85;9.13;;;14.50;71.70;;;10.02;100.00;95195.56;5250196;27;20488;-54
2024/05/07 02:27:17;;;;;;;13.40;9.07;;;14.50;71.80;;;10.03;100.00;95197.13;5256169;27;20034;-52
2024/05/07 02:29:43;;;;;;;12.48;8.77;;;14.50;71.80;;;10.02;100.00;95199.00;5245583;27;20014;-55
2024/05/07 02:32:08;;;;;;;10.32;8.45;;;14.50;71.80;;;10.05;100.00;95195.81;5257713;27;20017;-48
2024/05/07 02:34:34;;;;;;;15.18;9.60;;;14.50;71.80;;;10.05;100.00;95198.47;5255941;27;20013;-48
2024/05/07 02:37:00;;;;;;;15.63;9.60;;;14.50;71.80;;;10.04;100.00;95202.19;5208163;27;20091;-48
2024/05/07 02:39:26;;;;;;;14.05;9.25;;;14.50;71.90;;;10.01;100.00;95197.41;5191873;27;20011;-48
2024/05/07 02:41:52;;;;;;;12.82;9.02;;;14.40;71.90;;;10.01;100.00;95200.09;5189786;27;20541;-51
2024/05/07 02:44:17;;;;;;;9.80;7.35;;;14.40;72.00;;;9.98;100.00;95191.84;5192740;27;20090;-51
2024/05/07 02:46:43;;;;;;;10.63;6.32;;;14.40;72.10;;;9.95;100.00;95196.63;5198458;27;20027;-50
2024/05/07 02:49:09;;;;;;;11.05;6.22;;;14.40;72.00;;;9.92;100.00;95191.06;5190750;27;20018;-52
2024/05/07 02:51:35;;;;;;;9.25;6.53;;;14.40;72.10;;;9.86;100.00;95189.47;5191419;27;20011;-51
2024/05/07 02:54:01;;;;;;;8.05;6.43;;;14.30;72.10;;;9.82;100.00;95188.41;5190163;27;20458;-53
2024/05/07 02:56:27;;;;;;;10.07;6.30;;;14.30;72.20;;;9.79;100.00;95186.28;5190779;27;20007;-52
2024/05/07 02:58:54;;;;;;;7.93;6.15;;;14.20;72.10;;;9.78;100.00;95180.19;5196814;27;20438;-54
2024/05/07 03:01:20;;;;;;;9.98;6.22;;;14.20;72.30;;;9.76;100.00;95173.53;5191133;27;20015;-53
2024/05/07 03:03:47;;;;;;;9.48;6.30;;;14.20;72.40;;;9.75;100.00;95177.28;5193836;27;20015;-49
2024/05/07 03:06:13;;;;;;;10.05;6.85;;;14.10;72.40;;;9.75;100.00;95174.59;5190983;27;20053;-54
2024/05/07 03:08:39;;;;;;;9.90;6.50;;;14.10;72.40;;;9.73;100.00;95178.31;5190098;27;20003;-52
2024/05/07 03:11:05;;;;;;;10.07;6.30;;;14.10;72.50;;;9.71;100.00;95180.47;5195016;27;20011;-55
2024/05/07 03:13:31;;;;;;;7.55;5.82;;;14.10;72.50;;;9.68;100.00;95174.84;5194070;27;20015;-54
2024/05/07 03:15:57;;;;;;;7.32;5.93;;;14.00;72.40;;;9.67;100.00;95174.06;5192171;27;20011;-54
2024/05/07 03:18:24;;;;;;;7.43;5.85;;;14.00;72.60;;;9.65;100.00;95175.41;5191414;27;20378;-51
2024/05/07 03:20:50;;;;;;;8.55;6.00;;;14.00;72.50;;;9.63;100.00;95188.19;5186874;27;20022;-54
2024/05/07 03:23:15;;;;;;;9.50;6.20;;;14.00;72.50;;;9.61;100.00;95183.13;5188988;27;20048;-55
2024/05/07 03:25:41;;;;;;;8.70;5.60;;;14.00;72.50;;;9.59;100.00;95182.59;5191672;27;20015;-51
2024/05/07 03:28:08;;;;;;;9.63;5.90;;;14.00;72.50;;;9.55;100.00;95175.41;5186917;27;20082;-52
2024/05/07 03:30:34;;;;;;;7.55;6.18;;;13.90;72.50;;;9.53;100.00;95177.53;5190403;27;20011;-52
2024/05/07 03:32:59;;;;;;;10.18;6.28;;;13.90;72.40;;;9.49;100.00;95183.41;5201307;27;20403;-55
2024/05/07 03:35:25;;;;;;;9.75;6.50;;;13.90;72.40;;;9.45;100.00;95178.88;5215872;27;20009;-56
2024/05/07 03:37:51;;;;;;;8.63;6.57;;;13.90;72.40;;;9.47;100.00;95185.53;5256664;27;20484;-54
2024/05/07 03:40:18;;;;;;;9.20;6.47;;;13.90;72.50;;;9.47;100.00;95185.53;5260129;27;20020;-53
2024/05/07 03:42:46;;;;;;;11.73;6.28;;;13.90;72.50;;;9.48;100.00;95187.13;5250324;27;20514;-54
2024/05/07 03:45:14;;;;;;;8.43;6.18;;;13.90;72.60;;;9.48;100.00;95187.13;5249788;27;20025;-54
2024/05/07 03:47:40;;;;;;;11.23;6.13;;;13.90;72.60;;;9.46;100.00;95189.25;5252706;27;20018;-47
2024/05/07 03:50:06;;;;;;;9.60;5.80;;;13.90;73.30;;;9.43;100.00;95186.31;5256087;27;20016;-51
2024/05/07 03:52:32;;;;;;;8.55;5.53;;;13.90;72.50;;;9.44;100.00;95186.06;5260166;27;20002;-54
2024/05/07 03:54:58;;;;;;;8.45;5.40;;;13.90;72.60;;;9.42;100.00;95184.72;5260707;27;20010;-48
2024/05/07 03:57:24;;;;;;;8.43;5.25;;;13.80;72.50;;;9.41;100.00;95185.81;5263012;27;20396;-48
2024/05/07 03:59:50;;;;;;;7.68;5.10;;;13.80;72.50;;;9.40;100.00;95190.31;5257854;27;20013;-50
2024/05/07 04:02:16;;;;;;;15.32;7.10;;;13.80;72.50;;;9.41;100.00;95188.47;5250592;27;20026;-50
2024/05/07 04:04:41;;;;;;;9.10;5.90;;;13.80;72.60;;;9.41;100.00;95199.88;5264804;27;20034;-53
2024/05/07 04:07:07;;;;;;;9.95;5.53;;;13.80;72.60;;;9.40;100.00;95192.97;5256514;27;20002;-50
2024/05/07 04:09:33;;;;;;;11.73;5.82;;;13.80;72.50;;;9.40;100.00;95200.97;5260502;27;20083;-54
2024/05/07 04:11:59;;;;;;;10.73;5.20;;;13.80;72.50;;;9.39;100.00;95202.00;5251899;27;20352;-55
2024/05/07 04:14:25;;;;;;;9.20;5.40;;;13.80;72.50;;;9.38;100.00;95205.72;5257367;27;20466;-53
2024/05/07 04:16:51;;;;;;;7.10;5.20;;;13.80;72.50;;;9.37;100.00;95204.16;5257134;27;20010;-55
2024/05/07 04:19:17;;;;;;;12.18;5.80;;;13.80;72.40;;;9.36;100.00;95210.50;5265113;27;20006;-53
2024/05/07 04:21:44;;;;;;;8.00;5.40;;;13.80;72.40;;;9.33;100.00;95208.38;5250961;27;20010;-51
2024/05/07 04:24:09;;;;;;;6.40;5.05;;;13.80;72.30;;;9.31;100.00;95202.56;5258448;27;20025;-54
2024/05/07 04:26:35;;;;;;;9.13;5.43;;;13.80;72.30;;;9.29;100.00;95209.19;5252943;27;20485;-52
2024/05/07 04:29:01;;;;;;;9.35;5.15;;;13.80;73.00;;;9.31;100.00;95201.72;5259427;27;20021;-54
2024/05/07 04:31:27;;;;;;;9.32;4.63;;;13.80;72.30;;;9.29;100.00;95202.00;5259670;27;20021;-56
2024/05/07 04:33:52;;;;;;;7.22;4.93;;;13.80;72.30;;;9.31;100.00;95209.69;5263938;27;20025;-56
2024/05/07 04:36:18;;;;;;;7.70;5.43;;;13.80;73.10;;;9.30;100.00;95203.59;5254613;27;20010;-52
2024/05/07 04:38:44;;;;;;;7.75;5.60;;;13.90;72.30;;;9.31;100.00;95212.34;5261879;27;20005;-56
2024/05/07 04:41:10;;;;;;;10.25;5.60;;;13.90;72.30;;;9.32;100.00;95206.00;5247839;27;20333;-54
2024/05/07 04:43:36;;;;;;;8.48;5.30;;;13.90;72.30;;;9.35;100.00;95211.59;5256521;27;20520;-54
2024/05/07 04:46:02;;;;;;;6.90;5.40;;;13.90;72.20;;;9.37;100.00;95211.31;5261521;27;20062;-54
2024/05/07 04:48:28;;;;;;;10.50;5.30;;;13.90;72.20;;;9.36;100.00;95215.03;5239523;27;20052;-53
2024/05/07 04:50:54;;;;;;;7.88;5.15;;;13.90;72.20;;;9.34;100.00;95215.31;5256997;27;20007;-52
2024/05/07 04:53:20;;;;;;;8.68;5.20;;;13.90;72.10;;;9.36;100.00;95223.00;5263764;27;20002;-54
2024/05/07 04:55:47;;;;;;;7.25;5.63;;;13.90;72.10;;;9.34;100.00;95215.31;5248544;27;20017;-53
2024/05/07 04:58:16;;;;;;;9.27;5.88;;;14.00;72.20;;;9.38;100.00;95226.22;5256412;27;20013;-56
2024/05/07 05:00:45;;;;;;;10.60;5.68;;;13.90;72.20;;;9.40;100.00;95226.72;5255971;27;20016;-57
2024/05/07 05:03:12;;;;;;;10.48;6.65;;;14.00;72.30;;;9.43;100.00;95231.50;5259241;27;20057;-51
2024/05/07 05:05:40;;;;;;;7.68;6.47;;;14.00;72.30;;;9.46;100.00;95233.63;5253037;27;20014;-52
2024/05/07 05:08:26;;;;;;;6.97;5.93;;;14.00;72.30;;;9.48;100.00;95234.19;5260563;27;20384;-55
2024/05/07 05:10:55;;;;;;;9.25;6.35;;;14.00;72.40;;;9.51;100.00;95238.97;5251573;27;20055;-54
2024/05/07 05:13:22;;;;;;;9.00;6.13;;;14.10;72.30;;;9.56;100.00;95240.81;5258534;27;20090;-55
2024/05/07 05:15:47;;;;;;;9.45;6.45;;;14.10;72.40;;;9.57;100.00;95235.25;5259052;27;20011;-52
2024/05/07 05:18:13;;;;;;;8.55;6.15;;;14.10;72.40;;;9.61;100.00;95238.16;5253845;27;20035;-53
2024/05/07 05:20:39;;;;;;;8.60;6.63;;;14.10;72.40;;;9.63;100.00;95236.84;5257184;27;20025;-54
2024/05/07 05:23:14;;;;;;;11.38;6.88;;;14.20;72.40;;;9.67;100.00;95243.22;5250760;27;20011;-55
2024/05/07 05:25:41;;;;;;;8.57;6.57;;;14.20;72.50;;;9.70;100.00;95242.69;5251683;27;20058;-52
2024/05/07 05:28:07;;;;;;;8.82;6.25;;;14.20;72.50;;;9.71;100.00;95246.13;5263805;27;20013;-54
2024/05/07 05:30:33;;;;;;;10.35;6.80;;;14.20;72.40;;;9.71;100.00;95248.78;5250369;27;20021;-54
2024/05/07 05:32:59;;;;;;;10.40;6.35;;;14.30;72.40;;;9.75;100.00;95249.88;5258078;27;20033;-52
2024/05/07 05:35:24;;;;;;;10.45;6.38;;;14.30;72.30;;;9.71;100.00;95243.47;5285843;21;20026;-46
2024/05/07 05:37:50;;;;;;;8.90;6.38;;;14.30;72.30;;;9.75;100.00;95251.75;5320711;26;20005;-46
2024/05/07 05:40:16;;;;;;;8.18;6.03;;;14.40;72.30;;;9.76;100.00;95253.31;5328735;26;20074;-46
2024/05/07 05:42:42;;;;;;;7.55;6.03;;;14.40;72.30;;;9.71;100.00;95246.13;5317302;26;20467;-46
2024/05/07 05:45:08;;;;;;;8.45;6.25;;;14.40;72.30;;;9.73;100.00;95246.69;5327591;26;20015;-46
2024/05/07 05:47:34;;;;;;;10.82;6.38;;;14.40;72.20;;;9.77;100.00;95250.38;5336625;26;20139;-46
2024/05/07 05:50:00;;;;;;;9.20;6.00;;;14.30;72.20;;;9.79;100.00;95255.47;5335139;26;20012;-46
2024/05/07 05:52:26;;;;;;;9.55;6.28;;;14.40;72.30;;;9.81;100.00;95254.13;5336404;26;20008;-46
2024/05/07 05:54:52;;;;;;;7.30;6.10;;;14.40;72.30;;;9.83;100.00;95257.31;5335456;26;20004;-46
2024/05/07 05:57:18;;;;;;;9.93;6.63;;;14.40;72.30;;;9.88;100.00;95251.19;5336172;26;20008;-50
2024/05/07 05:59:44;;;;;;;9.65;6.50;;;14.50;72.30;;;9.93;100.00;95252.00;5336049;26;20393;-46
2024/05/07 06:02:09;;;;;;;9.43;6.18;;;14.50;72.20;;;9.96;100.00;95253.28;5335549;26;20547;-47
2024/05/07 06:04:36;;;;;;;7.90;5.82;;;14.60;72.20;;;9.94;100.00;95258.91;5336037;26;20008;-45
2024/05/07 06:07:02;;;;;;;7.75;5.57;;;14.50;72.10;;;9.94;100.00;95256.25;5334621;26;20028;-48
2024/05/07 06:09:27;;;;;;;6.55;5.72;;;14.60;72.10;;;9.98;100.00;95261.03;5334392;26;20359;-48
2024/05/07 06:11:53;;;;;;;11.55;6.07;;;14.60;72.10;;;9.99;100.00;95262.59;5334845;26;20004;-48
2024/05/07 06:14:20;;;;;;;8.07;5.85;;;14.70;72.00;;;10.06;100.00;95260.47;5335527;26;20004;-49
2024/05/07 06:16:46;;;;;;;8.63;5.40;;;14.70;71.90;;;10.09;100.00;95265.25;5336231;26;20000;-47
2024/05/07 06:19:12;;;;;;;10.20;6.05;;;14.80;72.00;;;10.12;100.00;95273.53;5334717;26;20522;-46
2024/05/07 06:21:39;;;;;;;6.72;5.03;;;14.80;72.00;;;10.07;100.00;95267.41;5336147;26;20086;-46
2024/05/07 06:24:05;;;;;;;7.03;5.95;;;14.80;71.80;;;10.07;100.00;95278.84;5356612;26;20110;-46
2024/05/07 06:26:31;;;;;;;7.68;6.28;;;14.80;71.70;;;10.08;100.00;95271.66;5335546;26;20503;-48
2024/05/07 06:28:56;;;;;;;10.90;5.65;;;14.90;71.70;;;10.06;100.00;95279.91;5335747;26;20008;-47
2024/05/07 06:31:22;;;;;;;11.52;6.55;;;14.80;71.50;;;10.01;100.00;95277.25;5334534;26;20008;-47
2024/05/07 06:33:48;;;;;;;11.13;6.65;;;14.80;71.40;;;10.02;100.00;95281.50;5335597;26;20019;-48
2024/05/07 06:36:14;;;;;;;8.20;6.72;;;14.80;71.30;;;10.01;100.00;95285.22;5336681;26;20020;-52
2024/05/07 06:38:40;;;;;;;7.95;6.57;;;14.80;71.30;;;9.97;100.00;95284.19;5335329;26;20009;-51
2024/05/07 06:41:06;;;;;;;7.97;7.15;;;14.80;71.40;;;9.94;100.00;95288.16;5362945;26;20020;-49
2024/05/07 06:43:32;;;;;;;10.73;7.45;;;14.80;71.30;;;9.94;100.00;95293.50;5335472;26;20004;-49
2024/05/07 06:45:58;;;;;;;11.60;6.47;;;14.80;71.30;;;10.02;100.00;95292.13;5335547;26;20691;-49
2024/05/07 06:48:24;;;;;;;9.68;6.93;;;14.80;71.40;;;10.02;100.00;95288.69;5333670;26;20027;-49
2024/05/07 06:50:49;;;;;;;7.93;7.10;;;14.80;71.50;;;10.04;100.00;95299.88;5335486;26;20012;-48
2024/05/07 06:53:15;;;;;;;8.20;6.88;;;14.70;71.40;;;10.04;100.00;95299.88;5335228;26;20012;-49
2024/05/07 06:55:42;;;;;;;9.82;7.45;;;14.70;71.50;;;10.03;100.00;95301.75;5333361;26;20019;-47
2024/05/07 06:58:09;;;;;;;9.57;7.57;;;14.70;71.50;;;10.00;100.00;95301.44;5335294;26;20005;-48
2024/05/07 07:00:36;;;;;;;8.73;7.32;;;14.70;71.50;;;10.00;100.00;95304.94;5334840;26;20027;-48
2024/05/07 07:03:04;;;;;;;10.10;6.70;;;14.70;71.50;;;10.06;100.00;95305.69;5334842;26;20013;-47
2024/05/07 07:05:32;;;;;;;8.85;7.25;;;14.70;71.60;;;10.07;100.00;95312.66;5338054;26;20008;-47
2024/05/07 07:07:58;;;;;;;10.48;6.50;;;14.80;71.60;;;10.09;100.00;95319.31;5336471;26;20119;-48
2024/05/07 07:10:25;;;;;;;9.73;6.72;;;14.70;71.60;;;10.09;100.00;95315.81;5338363;26;20012;-49
2024/05/07 07:12:51;;;;;;;7.45;5.55;;;14.70;71.60;;;10.03;100.00;95314.22;5336994;26;20052;-49
2024/05/07 07:15:17;;;;;;;6.30;4.90;;;14.70;71.50;;;9.98;100.00;95309.72;5338495;26;20008;-47
2024/05/07 07:17:45;;;;;;;10.55;5.72;;;14.70;71.40;;;9.98;100.00;95316.91;5338549;26;20012;-47
2024/05/07 07:20:13;;;;;;;7.32;5.65;;;14.70;71.50;;;10.03;100.00;95322.19;5337038;26;20462;-46
2024/05/07 07:22:40;;;;;;;10.55;5.45;;;14.70;71.50;;;10.04;100.00;95316.63;5338353;26;20000;-47
2024/05/07 07:25:07;;;;;;;6.95;5.32;;;14.70;71.50;;;10.06;100.00;95317.16;5335955;26;20008;-47
2024/05/07 07:27:33;;;;;;;6.28;5.60;;;14.80;71.50;;;10.14;100.00;95319.28;5338420;26;20488;-47
2024/05/07 07:29:59;;;;;;;6.03;5.03;;;14.80;71.60;;;10.13;100.00;95316.91;5336979;26;20526;-49
2024/05/07 07:32:25;;;;;;;8.05;5.22;;;14.90;71.60;;;10.21;100.00;95319.00;5338387;26;20009;-46
2024/05/07 07:34:50;;;;;;;7.53;5.35;;;14.90;71.50;;;10.30;100.00;95321.94;5334813;26;20075;-48
2024/05/07 07:37:16;;;;;;;6.32;5.50;;;15.00;71.50;;;10.36;100.00;95327.00;5338455;26;20016;-46
2024/05/07 07:39:42;;;;;;;6.47;5.53;;;15.10;71.40;;;10.43;100.00;95324.06;5333167;26;20081;-48
2024/05/07 07:42:09;;;;;;;7.00;5.15;;;15.20;71.40;;;10.48;100.00;95323.25;5336810;26;20023;-51
2024/05/07 07:44:35;;;;;;;5.97;5.13;;;15.30;71.30;;;10.56;100.00;95325.34;5337963;26;20016;-48
2024/05/07 07:47:01;;;;;;;6.00;5.03;;;15.30;71.20;;;10.54;100.00;95330.97;5338276;26;20009;-53
2024/05/07 07:49:27;;;;;;;5.30;4.43;;;15.40;71.10;;;10.59;100.00;95324.81;5337672;26;20089;-49
2024/05/07 07:51:53;;;;;;;6.63;4.32;;;15.50;71.00;;;10.65;100.00;95329.88;5337965;26;20016;-49
2024/05/07 07:54:18;;;;;;;5.43;4.05;;;15.50;71.00;;;10.73;100.00;95333.84;5337875;26;20011;-47
2024/05/07 07:56:44;;;;;;;4.63;3.95;;;15.50;70.90;;;10.72;100.00;95326.94;5338108;26;20381;-48
2024/05/07 07:59:11;;;;;;;5.47;3.15;;;15.50;70.80;;;10.73;100.00;95336.50;5338200;26;20012;-47
2024/05/07 08:01:37;;;;;;;4.68;3.60;;;15.60;70.80;;;10.77;100.00;95332.22;5337842;26;20017;-47
2024/05/07 08:04:03;;;;;;;4.25;3.38;;;15.60;70.70;;;10.81;100.00;95332.47;5337276;26;20004;-47
2024/05/07 08:06:29;;;;;;;4.85;3.50;;;15.60;70.70;;;10.81;100.00;95338.63;5336150;26;20009;-49
2024/05/07 08:08:55;;;;;;;4.05;2.80;;;15.60;70.70;;;10.80;100.00;95334.34;5337679;26;20458;-47
2024/05/07 08:11:21;;;;;;;2.95;2.67;;;15.60;70.60;;;10.82;100.00;95334.88;5337856;26;20027;-47
2024/05/07 08:13:47;;;;;;;4.78;2.80;;;15.60;70.50;;;10.82;100.00;95339.41;5336990;26;20005;-48
2024/05/07 08:16:12;;;;;;;3.95;2.90;;;15.60;70.50;;;10.86;100.00;95343.91;5336490;26;20397;-47
2024/05/07 08:18:38;;;;;;;2.95;2.75;;;15.60;70.40;;;10.92;100.00;95347.38;5336265;26;20033;-51
2024/05/07 08:21:07;;;;;;;5.75;3.03;;;15.70;70.40;;;10.96;100.00;95339.63;5330089;26;20004;-48
2024/05/07 08:23:35;;;;;;;3.13;2.38;;;15.70;70.20;;;10.96;100.00;95347.63;5337498;26;20004;-48
2024/05/07 08:26:01;;;;;;;3.95;2.60;;;15.80;70.20;;;11.02;100.00;95344.66;5337291;26;20008;-47
2024/05/07 08:28:27;;;;;;;3.80;2.63;;;15.80;70.10;;;10.98;100.00;95340.16;5337513;26;20360;-51
2024/05/07 08:30:53;;;;;;;3.05;2.30;;;15.90;70.10;;;11.04;100.00;95341.75;5336358;26;20019;-47
2024/05/07 08:33:21;;;;;;;2.70;2.38;;;16.10;69.90;;;10.99;100.00;95342.53;5364420;26;20004;-47
2024/05/07 08:35:48;;;;;;;3.22;2.80;;;16.20;70.30;;;11.20;100.00;95343.25;5337033;26;20000;-48
2024/05/07 08:38:15;;;;;;;2.85;2.60;;;16.40;69.50;;;11.38;100.00;95338.38;5334709;26;20048;-48
2024/05/07 08:40:42;;;;;;;2.53;2.33;;;16.60;69.30;;;11.52;100.00;95344.69;5337508;26;20103;-47
2024/05/07 08:43:08;;;;;;;7.57;2.60;;;16.70;69.10;;;11.65;100.00;95341.41;5336881;26;20062;-46
2024/05/07 08:45:36;;;;;;;3.80;2.65;;;16.90;69.00;;;11.75;100.00;95345.88;5359794;26;20001;-46
2024/05/07 08:48:07;;;;;;;4.00;2.58;;;17.00;68.90;;;11.85;100.00;95348.53;5337126;26;20016;-47
2024/05/07 08:50:34;;;;;;;3.88;2.38;;;17.10;68.90;;;11.90;100.00;95348.47;5333126;26;20009;-47
2024/05/07 08:53:02;;;;;;;3.50;2.40;;;17.20;68.70;;;11.99;100.00;95352.13;5336708;26;20510;-47
2024/05/07 08:55:32;;;;;;;2.40;2.20;;;17.40;68.30;;;11.95;100.00;95348.44;5335705;26;20435;-50
2024/05/07 08:57:58;;;;;;;2.97;2.20;;;17.40;67.80;;;12.04;100.00;95352.13;5337306;26;20518;-47
2024/05/07 09:00:26;;;;;;;2.78;2.20;;;17.50;67.60;;;12.11;100.00;95349.13;5335368;26;20012;-46
2024/05/07 09:02:54;;;;;;;2.08;1.90;;;17.60;67.60;;;12.07;100.00;95349.97;5336942;26;20004;-46
2024/05/07 09:05:20;;;;;;;2.05;1.70;;;17.60;67.20;;;12.16;100.00;95348.28;5334953;26;20085;-49
2024/05/07 09:07:46;;;;;;;2.33;1.77;;;17.60;67.00;;;12.26;100.00;95354.34;5333794;26;20487;-47
2024/05/07 09:10:12;;;;;;;5.30;1.92;;;17.60;67.10;;;12.32;100.00;95359.66;5336937;26;20016;-47
2024/05/07 09:12:37;;;;;;;1.92;1.73;;;17.70;67.10;;;12.26;100.00;95354.34;5335708;26;20012;-48
2024/05/07 09:15:05;;;;;;;4.93;2.00;;;17.70;66.90;;;12.36;100.00;95352.66;5336710;26;20054;-47
2024/05/07 09:17:32;;;;;;;2.40;2.20;;;17.70;66.80;;;12.38;100.00;95353.97;5336093;26;20421;-49
2024/05/07 09:20:02;;;;;;;2.33;2.10;;;17.70;66.70;;;12.42;100.00;95346.19;5333990;26;20045;-47
2024/05/07 09:22:28;;;;;;;2.35;2.15;;;17.80;66.60;;;12.44;100.00;95357.38;5336937;26;20143;-47
2024/05/07 09:24:57;;;;;;;2.47;2.25;;;17.80;66.40;;;12.53;100.00;95358.34;5334850;26;20043;-49
2024/05/07 09:27:33;;;;;;;3.65;2.13;;;17.80;66.40;;;12.62;100.00;95361.22;5329123;26;20106;-47
2024/05/07 09:29:59;;;;;;;3.60;2.05;;;17.90;66.30;;;12.71;100.00;95364.88;5335279;26;20284;-48
2024/05/07 09:32:29;;;;;;;2.15;1.90;;;18.10;66.30;;;12.80;100.00;95365.84;5336113;26;20016;-47
2024/05/07 09:34:57;;;;;;;1.60;1.30;;;18.20;66.10;;;12.85;100.00;95360.47;5337159;26;20020;-47
2024/05/07 09:37:26;;;;;;;1.90;1.42;;;18.40;65.80;;;12.94;100.00;95372.13;5332587;26;20004;-47
2024/05/07 09:40:29;;;;;;;1.40;1.30;;;18.50;65.20;;;13.14;100.00;95370.28;5336761;26;20020;-47
2024/05/07 09:43:12;;;;;;;1.60;1.50;;;18.80;65.50;;;13.28;100.00;95365.06;5333414;26;20004;-47
2024/05/07 09:46:03;;;;;;;3.13;1.35;;;19.10;64.40;;;13.40;100.00;95366.25;5332269;26;20020;-47
2024/05/07 09:48:37;;;;;;;2.53;1.42;;;19.30;64.00;;;13.49;100.00;95369.06;5336040;26;20008;-50
2024/05/07 09:51:06;;;;;;;2.60;1.52;;;19.70;63.50;;;13.76;100.00;95365.78;5336593;26;20012;-47
2024/05/07 09:53:35;;;;;;;1.75;1.48;;;20.00;63.30;;;13.95;100.00;95368.44;5334071;26;20077;-48
2024/05/07 09:56:03;;;;;;;2.85;1.67;;;20.30;62.90;;;14.18;99.66;95366.75;5335118;26;20078;-48
2024/05/07 09:58:35;;;;;;;4.53;1.65;;;20.60;62.10;;;14.45;100.00;95370.63;5333879;26;20017;-48
2024/05/07 10:01:03;;;;;;;2.33;1.40;;;20.80;61.30;;;14.65;100.00;95366.81;5335649;26;20001;-48
2024/05/07 10:03:31;;;;;;;1.40;1.30;;;20.90;61.20;;;14.78;94.90;95360.66;5334519;26;20479;-50
2024/05/07 10:06:01;;;;;;;1.52;1.40;;;21.00;60.70;;;14.83;95.75;95365.16;5362561;26;20467;-50
2024/05/07 10:08:28;;;;;;;1.63;1.52;;;21.10;60.40;;;14.86;95.21;95367.25;5335976;26;20052;-48
2024/05/07 10:10:56;;;;;;;2.40;1.38;;;21.10;59.80;;;14.95;93.71;95373.53;5336528;26;20027;-47
2024/05/07 10:13:27;;;;;;;1.50;1.35;;;21.10;59.70;;;14.96;95.68;95370.53;5333867;26;20083;-51
2024/05/07 10:15:54;;;;;;;1.40;1.30;;;21.10;59.50;;;14.97;94.60;95369.41;5336075;26;20417;-47
2024/05/07 10:18:31;;;;;;;3.15;1.23;;;21.20;59.40;;;14.93;85.39;95371.13;5334962;26;20675;-47
2024/05/07 10:21:10;;;;;;;1.52;1.42;;;21.20;58.50;;;15.04;88.84;95369.03;5336124;26;20020;-50
2024/05/07 10:24:02;;;;;;;2.25;1.50;;;21.30;58.40;;;15.02;89.33;95373.91;5336706;26;20414;-49